createdAt,value
2019-04-20T00:01:21.682Z,1.50
2019-04-20T00:03:47.321Z,1.40
2019-04-20T00:06:17.246Z,1.50
2019-04-20T00:08:46.233Z,1.40
2019-04-20T00:11:24.835Z,1.50
2019-04-20T00:13:54.954Z,1.60
2019-04-20T00:16:16.837Z,1.33
2019-04-20T00:18:48.845Z,1.20
2019-04-20T00:21:34.448Z,1.70
2019-04-20T00:24:13.376Z,1.63
2019-04-20T00:27:08.605Z,1.50
2019-04-20T00:29:27.732Z,1.80
2019-04-20T00:31:49.104Z,1.43
2019-04-20T00:34:17.340Z,1.50
2019-04-20T00:36:39.235Z,1.57
2019-04-20T00:39:11.276Z,1.60
2019-04-20T00:41:43.827Z,1.67
2019-04-20T00:44:13.269Z,1.60
2019-04-20T00:46:58.729Z,1.40
2019-04-20T00:49:20.663Z,1.60
2019-04-20T00:52:05.271Z,1.67
2019-04-20T00:54:07.887Z,1.70
2019-04-20T00:56:37.092Z,1.60
2019-04-20T00:59:17.204Z,1.53
2019-04-20T01:01:52.129Z,1.43
2019-04-20T01:04:23.839Z,1.40
2019-04-20T01:07:05.545Z,1.70
2019-04-20T01:09:43.938Z,1.47
2019-04-20T01:12:19.277Z,1.47
2019-04-20T01:14:48.469Z,1.67
2019-04-20T01:17:17.896Z,1.50
2019-04-20T01:19:48.866Z,1.83
2019-04-20T01:22:20.109Z,1.70
2019-04-20T01:24:48.315Z,1.50
2019-04-20T01:27:28.350Z,1.63
2019-04-20T01:29:50.960Z,1.73
2019-04-20T01:32:26.706Z,1.77
2019-04-20T01:34:57.636Z,1.57
2019-04-20T01:37:29.788Z,1.73
2019-04-20T01:39:52.059Z,1.63
2019-04-20T01:42:17.253Z,2.00
2019-04-20T01:44:49.167Z,1.70
2019-04-20T01:47:15.350Z,1.63
2019-04-20T01:49:47.726Z,1.60
2019-04-20T01:52:20.102Z,1.63
2019-04-20T01:55:22.978Z,1.70
2019-04-20T01:58:00.447Z,1.50
2019-04-20T02:00:44.990Z,1.67
2019-04-20T02:03:36.963Z,1.80
2019-04-20T02:06:06.377Z,1.70
2019-04-20T02:08:31.423Z,1.80
2019-04-20T02:11:04.349Z,1.73
2019-04-20T02:13:40.241Z,1.77
2019-04-20T02:16:11.425Z,1.90
2019-04-20T02:18:44.307Z,1.83
2019-04-20T02:21:22.073Z,1.70
2019-04-20T02:23:42.094Z,1.70
2019-04-20T02:26:04.983Z,1.40
2019-04-20T02:29:00.704Z,1.60
2019-04-20T02:31:45.685Z,1.80
2019-04-20T02:34:19.861Z,1.87
2019-04-20T02:36:58.825Z,1.80
2019-04-20T02:39:30.612Z,1.50
2019-04-20T02:41:53.365Z,1.73
2019-04-20T02:44:24.157Z,1.60
2019-04-20T02:46:55.842Z,1.80
2019-04-20T02:49:29.718Z,1.60
2019-04-20T02:59:51.238Z,1.73
2019-04-20T03:01:43.471Z,1.50
2019-04-20T03:03:55.987Z,1.40
2019-04-20T03:06:35.080Z,1.47
2019-04-20T03:09:15.222Z,1.67
2019-04-20T03:11:56.753Z,1.50
2019-04-20T03:14:09.556Z,1.83
2019-04-20T03:16:38.556Z,1.57
2019-04-20T03:19:08.065Z,1.77
2019-04-20T03:21:47.896Z,1.53
2019-04-20T03:24:18.891Z,1.60
2019-04-20T03:26:42.014Z,1.63
2019-04-20T03:29:37.055Z,1.40
2019-04-20T03:32:40.239Z,1.60
2019-04-20T03:37:13.154Z,1.60
2019-04-20T03:39:35.989Z,1.50
2019-04-20T03:41:54.899Z,1.37
2019-04-20T03:44:25.569Z,1.60
2019-04-20T03:46:57.486Z,1.90
2019-04-20T03:49:49.032Z,1.60
2019-04-20T03:52:28.786Z,1.40
2019-04-20T03:55:16.466Z,1.50
2019-04-20T03:58:10.085Z,1.40
2019-04-20T04:01:03.839Z,1.73
2019-04-20T04:03:56.671Z,1.53
2019-04-20T04:06:11.765Z,1.53
2019-04-20T04:08:34.460Z,1.67
2019-04-20T04:11:18.877Z,1.90
2019-04-20T04:13:27.037Z,1.57
2019-04-20T04:16:01.183Z,1.67
2019-04-20T04:18:31.868Z,1.67
2019-04-20T04:21:02.922Z,1.60
2019-04-20T04:23:40.439Z,1.80
2019-04-20T04:26:14.994Z,1.87
2019-04-20T04:28:40.998Z,1.70
2019-04-20T04:31:13.390Z,1.80
2019-04-20T04:33:55.949Z,1.60
2019-04-20T04:36:12.997Z,1.47
2019-04-20T04:38:48.701Z,1.77
2019-04-20T04:41:18.183Z,1.43
2019-04-20T04:43:44.327Z,1.53
2019-04-20T04:45:59.562Z,1.20
2019-04-20T04:48:34.452Z,1.40
2019-04-20T04:51:03.207Z,1.40
2019-04-20T04:53:42.975Z,1.33
2019-04-20T04:56:05.742Z,1.60
2019-04-20T04:58:29.699Z,1.57
2019-04-20T05:01:06.551Z,1.43
2019-04-20T05:03:45.312Z,1.47
2019-04-20T05:06:23.168Z,1.50
2019-04-20T05:08:43.771Z,1.40
2019-04-20T05:11:06.914Z,1.50
2019-04-20T05:13:41.903Z,1.37
2019-04-20T05:16:19.212Z,1.57
2019-04-20T05:18:59.267Z,1.40
2019-04-20T05:21:44.596Z,1.50
2019-04-20T05:24:33.813Z,1.60
2019-04-20T05:27:30.075Z,1.50
2019-04-20T05:29:41.355Z,1.70
2019-04-20T05:32:15.924Z,1.87
2019-04-20T05:35:05.100Z,2.00
2019-04-20T05:37:33.282Z,1.80
2019-04-20T05:40:04.412Z,2.03
2019-04-20T05:42:31.243Z,2.10
2019-04-20T05:44:57.247Z,1.97
2019-04-20T05:47:27.039Z,1.93
2019-04-20T05:49:53.790Z,1.93
2019-04-20T05:52:53.907Z,1.90
2019-04-20T05:55:03.021Z,2.00
2019-04-20T05:57:31.938Z,2.07
2019-04-20T06:00:12.666Z,2.10
2019-04-20T06:02:34.761Z,2.10
2019-04-20T06:05:06.959Z,2.00
2019-04-20T06:07:31.166Z,1.83
2019-04-20T06:10:07.801Z,1.70
2019-04-20T06:12:33.137Z,1.70
2019-04-20T06:15:21.094Z,1.80
2019-04-20T06:18:02.390Z,1.77
2019-04-20T06:20:45.358Z,1.43
2019-04-20T06:23:34.254Z,1.80
2019-04-20T06:26:13.429Z,1.80
2019-04-20T06:28:28.377Z,1.97
2019-04-20T06:30:52.639Z,2.00
2019-04-20T06:34:31.084Z,1.77
2019-04-20T06:36:51.175Z,1.80
2019-04-20T06:39:20.016Z,1.70
2019-04-20T06:42:07.755Z,1.87
2019-04-20T06:44:23.163Z,2.00
2019-04-20T06:46:52.473Z,1.63
2019-04-20T06:49:22.876Z,1.80
2019-04-20T06:51:55.386Z,2.07
2019-04-20T06:54:20.034Z,1.97
2019-04-20T06:57:01.723Z,2.03
2019-04-20T06:59:38.733Z,2.27
2019-04-20T07:04:49.999Z,2.00
2019-04-20T07:07:08.611Z,2.47
2019-04-20T07:09:42.114Z,2.10
2019-04-20T07:11:59.576Z,2.33
2019-04-20T07:14:24.203Z,2.53
2019-04-20T07:17:26.938Z,2.00
2019-04-20T07:19:55.903Z,2.70
2019-04-20T07:22:39.403Z,2.00
2019-04-20T07:25:01.177Z,2.10
2019-04-20T07:27:36.584Z,2.33
2019-04-20T07:30:03.949Z,2.33
2019-04-20T07:32:38.929Z,2.63
2019-04-20T07:35:01.353Z,2.20
2019-04-20T07:38:04.640Z,2.23
2019-04-20T07:40:13.535Z,2.50
2019-04-20T07:42:43.695Z,2.03
2019-04-20T07:45:07.463Z,2.10
2019-04-20T07:47:44.086Z,2.50
2019-04-20T07:50:04.835Z,2.53
2019-04-20T07:52:24.364Z,2.17
2019-04-20T07:55:32.001Z,2.27
2019-04-20T07:57:34.034Z,2.30
2019-04-20T08:00:04.864Z,2.47
2019-04-20T08:02:58.654Z,1.90
2019-04-20T08:05:36.723Z,2.27
2019-04-20T08:08:08.318Z,2.30
2019-04-20T08:10:47.391Z,2.10
2019-04-20T08:13:21.484Z,2.50
2019-04-20T08:18:16.085Z,2.27
2019-04-20T08:20:46.275Z,2.30
2019-04-20T08:23:12.986Z,2.33
2019-04-20T08:25:36.152Z,2.40
2019-04-20T08:28:18.860Z,2.20
2019-04-20T08:31:25.257Z,2.27
2019-04-20T08:34:12.161Z,1.93
2019-04-20T08:36:33.217Z,2.10
2019-04-20T08:41:25.045Z,2.60
2019-04-20T08:44:18.649Z,2.47
2019-04-20T08:46:38.351Z,2.30
2019-04-20T08:49:05.048Z,2.33
2019-04-20T08:51:46.305Z,2.53
2019-04-20T08:54:02.349Z,2.43
2019-04-20T08:56:27.269Z,2.27
2019-04-20T08:58:43.448Z,2.33
2019-04-20T09:01:18.438Z,2.20
2019-04-20T09:03:53.133Z,2.37
2019-04-20T09:06:26.358Z,2.03
2019-04-20T09:08:50.339Z,2.30
2019-04-20T09:11:31.156Z,2.10
2019-04-20T09:13:47.710Z,2.07
2019-04-20T09:16:13.035Z,2.50
2019-04-20T09:18:51.472Z,2.17
2019-04-20T09:21:25.288Z,2.00
2019-04-20T09:24:04.545Z,2.30
2019-04-20T09:26:34.277Z,2.20
2019-04-20T09:29:02.825Z,2.10
2019-04-20T09:31:44.801Z,2.30
2019-04-20T09:34:37.028Z,1.93
2019-04-20T09:37:21.961Z,1.93
2019-04-20T09:40:06.180Z,2.07
2019-04-20T09:42:30.360Z,2.00
2019-04-20T09:45:02.490Z,1.87
2019-04-20T09:47:36.813Z,2.17
2019-04-20T09:50:18.732Z,2.00
2019-04-20T09:52:46.513Z,2.30
2019-04-20T09:55:10.764Z,2.30
2019-04-20T09:57:46.692Z,2.20
2019-04-20T10:00:16.770Z,2.23
2019-04-20T10:02:32.558Z,2.00
2019-04-20T10:04:59.643Z,1.80
2019-04-20T10:07:32.586Z,2.17
2019-04-20T10:09:58.018Z,2.27
2019-04-20T10:12:26.113Z,1.80
2019-04-20T10:14:57.625Z,1.77
2019-04-20T10:17:27.055Z,1.87
2019-04-20T10:19:54.066Z,1.97
2019-04-20T10:22:22.569Z,1.90
2019-04-20T10:24:52.199Z,1.83
2019-04-20T10:27:20.999Z,2.00
2019-04-20T10:29:49.342Z,1.90
2019-04-20T10:32:17.998Z,2.00
2019-04-20T10:34:46.494Z,2.00
2019-04-20T10:37:24.174Z,2.10
2019-04-20T10:39:52.423Z,2.03
2019-04-20T10:42:20.570Z,2.00
2019-04-20T10:44:48.558Z,2.07
2019-04-20T10:47:16.887Z,2.40
2019-04-20T10:49:45.091Z,2.00
2019-04-20T10:52:13.744Z,2.10
2019-04-20T10:54:42.699Z,2.37
2019-04-20T10:57:10.800Z,1.80
2019-04-20T10:59:39.452Z,1.80
2019-04-20T11:02:09.788Z,1.83
2019-04-20T11:04:38.786Z,2.00
2019-04-20T11:07:08.209Z,2.00
2019-04-20T11:09:36.659Z,1.70
2019-04-20T11:12:06.268Z,2.00
2019-04-20T11:14:37.245Z,1.93
2019-04-20T11:17:04.499Z,1.80
2019-04-20T11:19:33.604Z,1.90
2019-04-20T11:22:02.229Z,1.83
2019-04-20T11:24:30.315Z,1.40
2019-04-20T11:26:58.626Z,1.70
2019-04-20T11:29:26.658Z,1.50
2019-04-20T11:31:56.175Z,1.50
2019-04-20T11:34:28.658Z,1.63
2019-04-20T11:36:55.045Z,1.37
2019-04-20T11:39:23.142Z,1.60
2019-04-20T11:41:51.746Z,1.37
2019-04-20T11:44:20.080Z,1.40
2019-04-20T11:46:48.392Z,1.40
2019-04-20T11:49:17.469Z,1.50
2019-04-20T11:51:45.926Z,1.40
2019-04-20T11:54:14.592Z,1.30
2019-04-20T11:56:46.840Z,1.37
2019-04-20T11:59:12.773Z,1.50
2019-04-20T12:02:04.100Z,1.40
2019-04-20T12:04:44.182Z,1.40
2019-04-20T12:07:08.748Z,1.50
2019-04-20T12:09:37.704Z,1.60
2019-04-20T12:12:15.530Z,1.43
2019-04-20T12:14:36.759Z,1.27
2019-04-20T12:17:05.894Z,1.47
2019-04-20T12:19:36.213Z,1.27
2019-04-20T12:22:04.000Z,1.40
2019-04-20T12:24:33.214Z,1.30
2019-04-20T12:27:02.661Z,1.30
2019-04-20T12:29:32.087Z,1.40
2019-04-20T12:32:02.962Z,1.20
2019-04-20T12:34:30.731Z,1.33
2019-04-20T12:36:58.806Z,1.30
2019-04-20T12:39:27.068Z,1.20
2019-04-20T12:41:58.851Z,1.30
2019-04-20T12:44:25.788Z,1.40
2019-04-20T12:46:54.023Z,1.50
2019-04-20T12:49:23.459Z,1.30
2019-04-20T12:51:57.079Z,1.43
2019-04-20T12:54:22.780Z,1.60
2019-04-20T12:56:50.893Z,1.50
2019-04-20T12:59:18.957Z,1.40
2019-04-20T13:01:47.152Z,1.30
2019-04-20T13:04:16.462Z,1.40
2019-04-20T13:06:45.146Z,1.33
2019-04-20T13:09:14.474Z,1.27
2019-04-20T13:12:11.694Z,1.40
2019-04-20T13:15:42.468Z,1.10
2019-04-20T13:18:11.581Z,1.20
2019-04-20T13:20:39.802Z,1.50
2019-04-20T13:23:09.122Z,1.57
2019-04-20T13:25:39.185Z,1.30
2019-04-20T13:28:07.422Z,1.43
2019-04-20T13:30:35.592Z,1.53
2019-04-20T13:33:03.991Z,1.47
2019-04-20T13:35:34.277Z,1.50
2019-04-20T13:38:02.544Z,1.27
2019-04-20T13:40:31.214Z,1.50
2019-04-20T13:42:59.594Z,1.60
2019-04-20T13:45:28.838Z,1.40
2019-04-20T13:47:57.078Z,1.27
2019-04-20T13:50:26.258Z,1.47
2019-04-20T13:52:54.474Z,1.40
2019-04-20T13:55:24.949Z,1.37
2019-04-20T13:58:04.227Z,1.17
2019-04-20T14:00:58.961Z,1.40
2019-04-20T14:03:30.018Z,1.10
2019-04-20T14:05:58.480Z,1.20
2019-04-20T14:08:27.385Z,1.30
2019-04-20T14:10:55.752Z,1.20
2019-04-20T14:13:29.292Z,1.13
2019-04-20T14:15:55.449Z,1.10
2019-04-20T14:18:24.942Z,1.30
2019-04-20T14:20:54.105Z,1.40
2019-04-20T14:23:23.217Z,1.10
2019-04-20T14:25:52.155Z,1.30
2019-04-20T14:28:20.952Z,1.20
2019-04-20T14:30:49.933Z,1.40
2019-04-20T14:33:18.937Z,1.30
2019-04-20T14:35:48.353Z,1.33
2019-04-20T14:38:17.641Z,1.30
2019-04-20T14:40:46.371Z,1.03
2019-04-20T14:43:15.111Z,1.23
2019-04-20T14:45:44.769Z,1.20
2019-04-20T14:48:13.051Z,1.30
2019-04-20T14:50:41.416Z,1.40
2019-04-20T14:53:09.598Z,1.27
2019-04-20T14:55:37.705Z,1.50
2019-04-20T14:58:26.956Z,1.20
2019-04-20T15:01:00.578Z,1.13
2019-04-20T15:03:36.893Z,1.20
2019-04-20T15:06:05.410Z,1.23
2019-04-20T15:08:34.861Z,1.00
2019-04-20T15:11:03.037Z,1.33
2019-04-20T15:13:31.034Z,1.20
2019-04-20T15:15:59.179Z,1.30
2019-04-20T15:18:31.739Z,1.20
2019-04-20T15:21:01.654Z,1.50
2019-04-20T15:23:29.838Z,1.30
2019-04-20T15:25:58.222Z,1.23
2019-04-20T15:28:26.402Z,1.30
2019-04-20T15:30:54.491Z,1.20
2019-04-20T15:33:23.489Z,1.10
2019-04-20T15:35:52.687Z,1.13
2019-04-20T15:38:21.094Z,1.10
2019-04-20T15:40:49.402Z,1.33
2019-04-20T15:43:20.903Z,1.20
2019-04-20T15:45:47.591Z,1.33
2019-04-20T15:48:16.296Z,1.23
2019-04-20T15:50:45.670Z,1.10
2019-04-20T15:53:13.814Z,1.37
2019-04-20T15:55:43.870Z,1.20
2019-04-20T15:58:12.368Z,1.10
2019-04-20T16:00:40.613Z,1.23
2019-04-20T16:03:12.904Z,1.03
2019-04-20T16:06:07.462Z,1.40
2019-04-20T16:08:38.721Z,1.33
2019-04-20T16:11:07.330Z,1.00
2019-04-20T16:13:39.575Z,1.10
2019-04-20T16:16:05.819Z,1.00
2019-04-20T16:18:34.944Z,1.40
2019-04-20T16:21:07.885Z,1.30
2019-04-20T16:23:58.934Z,1.30
2019-04-20T16:26:35.729Z,1.40
2019-04-20T16:29:05.835Z,1.60
2019-04-20T16:31:34.015Z,1.70
2019-04-20T16:34:03.226Z,1.53
2019-04-20T16:36:32.467Z,1.30
2019-04-20T16:39:01.696Z,1.10
2019-04-20T16:41:32.637Z,1.30
2019-04-20T16:44:00.789Z,1.33
2019-04-20T16:46:30.049Z,1.00
2019-04-20T16:48:58.982Z,1.23
2019-04-20T16:51:27.201Z,1.13
2019-04-20T16:53:56.160Z,1.57
2019-04-20T16:56:24.565Z,1.20
2019-04-20T16:58:54.645Z,1.17
2019-04-20T17:01:23.467Z,1.03
2019-04-20T17:04:01.058Z,1.07
2019-04-20T17:06:22.323Z,1.00
2019-04-20T17:08:51.335Z,1.00
2019-04-20T17:11:19.483Z,0.90
2019-04-20T17:13:50.046Z,1.10
2019-04-20T17:16:17.622Z,1.00
2019-04-20T17:18:49.969Z,0.87
2019-04-20T17:21:22.924Z,1.10
2019-04-20T17:23:49.144Z,1.10
2019-04-20T17:26:29.460Z,1.10
2019-04-20T17:29:19.979Z,1.00
2019-04-20T17:32:13.714Z,1.17
2019-04-20T17:34:58.185Z,1.10
2019-04-20T17:37:12.880Z,1.10
2019-04-20T17:40:05.297Z,0.87
2019-04-20T17:42:23.749Z,1.00
2019-04-20T17:44:55.581Z,1.00
2019-04-20T17:47:31.323Z,0.90
2019-04-20T17:50:05.243Z,1.10
2019-04-20T17:52:37.323Z,0.93
2019-04-20T17:54:55.843Z,1.10
2019-04-20T17:57:25.381Z,0.97
2019-04-20T18:00:07.052Z,1.03
2019-04-20T18:03:00.642Z,1.03
2019-04-20T18:05:39.491Z,1.10
2019-04-20T18:08:10.279Z,1.27
2019-04-20T18:10:36.743Z,1.00
2019-04-20T18:12:53.056Z,1.10
2019-04-20T18:15:36.845Z,1.10
2019-04-20T18:18:24.520Z,0.97
2019-04-20T18:20:59.006Z,1.10
2019-04-20T18:23:33.736Z,1.00
2019-04-20T18:26:18.629Z,1.10
2019-04-20T18:28:51.600Z,1.07
2019-04-20T18:31:15.492Z,1.20
2019-04-20T18:33:44.493Z,1.10
2019-04-20T18:36:20.566Z,1.30
2019-04-20T18:38:52.985Z,1.00
2019-04-20T18:41:25.687Z,0.90
2019-04-20T18:43:48.212Z,1.10
2019-04-20T18:46:29.336Z,1.00
2019-04-20T18:49:03.285Z,1.30
2019-04-20T18:51:12.254Z,0.83
2019-04-20T18:53:43.334Z,1.00
2019-04-20T18:56:10.269Z,1.10
2019-04-20T18:58:38.334Z,1.20
2019-04-20T19:01:07.542Z,1.10
2019-04-20T19:03:40.654Z,0.90
2019-04-20T19:06:07.210Z,1.30
2019-04-20T19:08:40.504Z,0.93
2019-04-20T19:11:09.755Z,1.00
2019-04-20T19:13:44.608Z,1.10
2019-04-20T19:16:50.883Z,1.20
2019-04-20T19:19:37.507Z,0.93
2019-04-20T19:21:58.461Z,0.90
2019-04-20T19:24:29.698Z,1.03
2019-04-20T19:27:02.949Z,1.00
2019-04-20T19:29:33.011Z,0.93
2019-04-20T19:32:15.851Z,0.90
2019-04-20T19:34:43.197Z,1.13
2019-04-20T19:37:06.199Z,1.20
2019-04-20T19:39:43.691Z,1.40
2019-04-20T19:42:11.739Z,1.20
2019-04-20T19:44:49.540Z,1.37
2019-04-20T19:47:15.678Z,1.40
2019-04-20T19:49:37.082Z,1.20
2019-04-20T19:52:27.161Z,1.20
2019-04-20T19:54:46.503Z,1.10
2019-04-20T19:57:16.148Z,1.10
2019-04-20T19:59:35.438Z,1.43
2019-04-20T20:01:58.015Z,1.00
2019-04-20T20:04:26.054Z,1.20
2019-04-20T20:07:01.470Z,1.27
2019-04-20T20:09:24.170Z,1.70
2019-04-20T20:11:56.129Z,1.30
2019-04-20T20:14:30.619Z,1.20
2019-04-20T20:17:08.681Z,1.33
2019-04-20T20:19:37.191Z,1.30
2019-04-20T20:22:06.717Z,1.13
2019-04-20T20:24:23.228Z,1.30
2019-04-20T20:26:59.865Z,1.17
2019-04-20T20:29:31.566Z,1.30
2019-04-20T20:32:08.482Z,1.00
2019-04-20T20:34:28.724Z,1.20
2019-04-20T20:36:54.584Z,1.20
2019-04-20T20:39:27.763Z,1.00
2019-04-20T20:42:04.978Z,1.30
2019-04-20T20:44:31.843Z,1.40
2019-04-20T20:47:03.115Z,1.13
2019-04-20T20:49:40.184Z,1.10
2019-04-20T20:52:12.040Z,1.17
2019-04-20T20:54:33.579Z,1.30
2019-04-20T20:57:02.830Z,1.20
2019-04-20T20:59:34.771Z,1.10
2019-04-20T21:02:00.974Z,1.17
2019-04-20T21:04:21.758Z,1.33
2019-04-20T21:06:50.881Z,1.20
2019-04-20T21:09:20.651Z,1.07
2019-04-20T21:11:51.129Z,1.30
2019-04-20T21:14:22.171Z,0.90
2019-04-20T21:17:00.303Z,1.20
2019-04-20T21:19:34.287Z,1.20
2019-04-20T21:21:55.920Z,1.10
2019-04-20T21:24:30.300Z,1.50
2019-04-20T21:27:00.611Z,1.20
2019-04-20T21:29:35.565Z,1.30
2019-04-20T21:32:05.051Z,1.00
2019-04-20T21:34:29.118Z,1.27
2019-04-20T21:37:07.021Z,1.20
2019-04-20T21:39:38.283Z,1.40
2019-04-20T21:42:04.373Z,1.60
2019-04-20T21:44:34.798Z,1.57
2019-04-20T21:47:01.266Z,1.93
2019-04-20T21:49:42.307Z,1.60
2019-04-20T21:52:06.734Z,1.47
2019-04-20T21:54:32.009Z,1.40
2019-04-20T21:57:03.853Z,1.67
2019-04-20T21:59:36.268Z,1.47
2019-04-20T22:02:09.854Z,1.37
2019-04-20T22:04:31.298Z,1.47
2019-04-20T22:07:00.487Z,1.63
2019-04-20T22:09:34.412Z,1.30
2019-04-20T22:12:00.040Z,1.30
2019-04-20T22:14:32.286Z,1.50
2019-04-20T22:17:01.804Z,1.30
2019-04-20T22:19:41.161Z,1.23
2019-04-20T22:22:05.515Z,1.40
2019-04-20T22:24:45.466Z,1.50
2019-04-20T22:27:09.933Z,1.70
2019-04-20T22:29:32.268Z,1.30
2019-04-20T22:32:08.899Z,1.27
2019-04-20T22:34:33.690Z,1.60
2019-04-20T22:37:02.374Z,1.50
2019-04-20T22:39:39.678Z,1.30
2019-04-20T22:42:08.942Z,1.30
2019-04-20T22:44:36.429Z,1.50
2019-04-20T22:47:12.514Z,1.60
2019-04-20T22:49:48.209Z,1.40
2019-04-20T22:52:23.337Z,1.60
2019-04-20T22:54:49.396Z,1.37
2019-04-20T22:57:19.397Z,1.60
2019-04-20T22:59:44.708Z,1.60
2019-04-20T23:02:06.544Z,1.50
2019-04-20T23:04:35.077Z,1.47
2019-04-20T23:07:03.237Z,1.30
2019-04-20T23:09:34.211Z,1.70
2019-04-20T23:12:09.194Z,1.63
2019-04-20T23:14:32.141Z,1.40
2019-04-20T23:17:02.132Z,1.30
2019-04-20T23:19:38.193Z,1.43
2019-04-20T23:22:04.820Z,1.37
2019-04-20T23:24:31.060Z,1.50
2019-04-20T23:26:59.541Z,1.23
2019-04-20T23:29:32.669Z,1.53
2019-04-20T23:32:03.009Z,1.40
2019-04-20T23:34:31.011Z,1.53
2019-04-20T23:36:58.870Z,1.67
2019-04-20T23:39:34.248Z,1.30
2019-04-20T23:42:01.612Z,1.23
2019-04-20T23:44:45.917Z,1.63
2019-04-20T23:47:25.524Z,1.70
2019-04-20T23:50:12.292Z,1.43
2019-04-20T23:52:49.692Z,1.50
2019-04-20T23:55:04.338Z,1.60
2019-04-20T23:57:29.382Z,1.50
2019-04-20T23:59:58.175Z,1.90
